createdAt,value
2022-11-20T00:03:26.529Z,2.57
2022-11-20T00:07:09.199Z,2.10
2022-11-20T00:10:53.195Z,2.70
2022-11-20T00:14:35.830Z,2.60
2022-11-20T00:18:18.562Z,2.57
2022-11-20T00:22:01.229Z,2.80
2022-11-20T00:25:43.881Z,2.20
2022-11-20T00:29:27.938Z,2.53
2022-11-20T00:33:12.097Z,3.00
2022-11-20T00:36:54.787Z,2.37
2022-11-20T00:40:37.410Z,2.93
2022-11-20T00:44:20.173Z,2.77
2022-11-20T00:48:06.380Z,2.40
2022-11-20T00:51:49.065Z,2.57
2022-11-20T00:55:31.756Z,2.50
2022-11-20T00:59:17.720Z,2.40
2022-11-20T01:03:00.510Z,2.77
2022-11-20T01:06:44.511Z,2.33
2022-11-20T01:10:27.128Z,2.70
2022-11-20T01:14:13.141Z,2.73
2022-11-20T01:17:58.146Z,2.70
2022-11-20T01:21:42.395Z,2.70
2022-11-20T01:25:26.429Z,2.67
2022-11-20T01:29:12.177Z,2.57
2022-11-20T01:32:54.849Z,2.50
2022-11-20T01:36:38.625Z,2.67
2022-11-20T01:40:21.251Z,2.37
2022-11-20T01:44:05.301Z,2.27
2022-11-20T01:47:49.322Z,2.57
2022-11-20T01:51:35.317Z,2.50
2022-11-20T01:55:21.570Z,2.80
2022-11-20T01:59:07.503Z,2.30
2022-11-20T02:02:53.820Z,2.20
2022-11-20T02:06:38.537Z,2.33
2022-11-20T02:10:21.209Z,2.20
2022-11-20T02:14:05.339Z,2.40
2022-11-20T02:17:48.604Z,2.77
2022-11-20T02:21:37.435Z,2.63
2022-11-20T02:25:21.559Z,2.40
2022-11-20T02:29:05.260Z,2.60
2022-11-20T02:32:47.957Z,2.77
2022-11-20T02:36:31.335Z,2.57
2022-11-20T02:40:14.047Z,2.90
2022-11-20T02:43:58.089Z,2.87
2022-11-20T02:47:40.797Z,2.40
2022-11-20T02:51:25.414Z,3.13
2022-11-20T02:55:09.016Z,2.97
2022-11-20T02:58:51.814Z,2.87
2022-11-20T03:02:35.916Z,3.30
2022-11-20T03:06:21.237Z,3.23
2022-11-20T03:10:04.064Z,3.00
2022-11-20T03:13:46.678Z,2.80
2022-11-20T03:17:30.386Z,3.03
2022-11-20T03:21:15.752Z,2.87
2022-11-20T03:24:58.419Z,3.00
2022-11-20T03:28:41.293Z,2.60
2022-11-20T03:32:23.961Z,2.80
2022-11-20T03:36:08.329Z,3.20
2022-11-20T03:39:52.363Z,3.20
2022-11-20T03:43:35.336Z,3.17
2022-11-20T03:47:17.988Z,3.33
2022-11-20T03:51:15.891Z,3.63
2022-11-20T03:54:59.915Z,3.40
2022-11-20T03:58:43.117Z,3.30
2022-11-20T04:02:25.827Z,3.33
2022-11-20T04:06:10.557Z,3.13
2022-11-20T04:09:53.240Z,3.10
2022-11-20T04:13:37.615Z,3.03
2022-11-20T04:17:20.605Z,3.23
2022-11-20T04:21:03.406Z,2.97
2022-11-20T04:24:46.011Z,3.40
2022-11-20T04:28:28.710Z,3.13
2022-11-20T04:32:12.698Z,2.93
2022-11-20T04:35:55.407Z,2.67
2022-11-20T04:39:38.075Z,3.13
2022-11-20T04:43:20.739Z,3.00
2022-11-20T04:47:03.379Z,3.17
2022-11-20T04:50:47.417Z,3.07
2022-11-20T04:54:30.090Z,2.90
2022-11-20T04:58:14.731Z,3.00
2022-11-20T05:01:57.567Z,3.23
2022-11-20T05:05:40.248Z,2.97
2022-11-20T05:09:24.410Z,3.30
2022-11-20T05:13:07.117Z,3.60
2022-11-20T05:16:49.964Z,3.47
2022-11-20T05:20:32.644Z,3.40
2022-11-20T05:24:15.320Z,3.10
2022-11-20T05:27:59.514Z,3.20
2022-11-20T05:31:42.811Z,3.33
2022-11-20T05:35:25.485Z,3.30
2022-11-20T05:39:08.162Z,3.37
2022-11-20T05:42:50.814Z,3.30
2022-11-20T05:46:34.904Z,3.20
2022-11-20T05:50:17.700Z,3.00
2022-11-20T05:54:00.375Z,3.00
2022-11-20T05:57:43.115Z,3.03
2022-11-20T06:01:27.559Z,3.00
2022-11-20T06:05:11.681Z,2.67
2022-11-20T06:08:54.411Z,2.90
2022-11-20T06:12:37.087Z,3.33
2022-11-20T06:16:25.531Z,3.10
2022-11-20T06:20:09.387Z,2.60
2022-11-20T06:23:54.675Z,2.57
2022-11-20T06:27:37.325Z,2.40
2022-11-20T06:31:22.813Z,2.40
2022-11-20T06:35:06.350Z,2.50
2022-11-20T06:38:49.072Z,2.30
2022-11-20T06:42:33.086Z,2.17
2022-11-20T06:46:18.460Z,2.10
2022-11-20T06:50:01.262Z,2.13
2022-11-20T06:53:43.976Z,1.90
2022-11-20T06:57:26.702Z,1.90
2022-11-20T07:01:15.861Z,2.03
2022-11-20T07:04:58.590Z,1.97
2022-11-20T07:08:41.242Z,2.20
2022-11-20T07:12:23.902Z,1.70
2022-11-20T07:16:08.894Z,2.33
2022-11-20T07:19:53.111Z,2.10
2022-11-20T07:23:36.340Z,2.40
2022-11-20T07:27:22.011Z,2.57
2022-11-20T07:31:05.745Z,2.70
2022-11-20T07:34:48.442Z,2.90
2022-11-20T07:38:32.794Z,2.90
2022-11-20T07:42:15.482Z,2.87
2022-11-20T07:45:58.271Z,2.90
2022-11-20T07:49:40.946Z,2.90
2022-11-20T07:53:23.920Z,2.60
2022-11-20T07:57:07.926Z,2.50
2022-11-20T08:00:50.658Z,2.40
2022-11-20T08:04:34.200Z,2.40
2022-11-20T08:08:16.994Z,2.30
2022-11-20T08:12:17.258Z,2.30
2022-11-20T08:16:03.920Z,2.20
2022-11-20T08:19:46.586Z,2.10
2022-11-20T08:23:29.242Z,2.20
2022-11-20T08:27:11.959Z,2.27
2022-11-20T08:31:01.541Z,2.20
2022-11-20T08:34:44.245Z,2.40
2022-11-20T08:38:26.945Z,2.87
2022-11-20T08:42:09.885Z,2.30
2022-11-20T08:45:52.492Z,3.00
2022-11-20T08:49:36.530Z,2.60
2022-11-20T08:53:19.270Z,2.87
2022-11-20T08:57:01.969Z,2.70
2022-11-20T09:00:44.666Z,2.60
2022-11-20T09:04:27.934Z,2.53
2022-11-20T09:08:12.015Z,2.10
2022-11-20T09:11:54.730Z,2.37
2022-11-20T09:15:37.547Z,2.20
2022-11-20T09:19:35.123Z,2.10
2022-11-20T09:23:24.211Z,2.20
2022-11-20T09:27:07.172Z,2.57
2022-11-20T09:30:49.824Z,2.20
2022-11-20T09:34:32.529Z,2.00
2022-11-20T09:38:15.572Z,2.00
2022-11-20T09:42:09.590Z,1.90
2022-11-20T09:46:08.294Z,1.83
2022-11-20T09:50:00.811Z,2.00
2022-11-20T09:53:53.095Z,1.80
2022-11-20T09:57:41.202Z,1.33
2022-11-20T10:01:28.151Z,1.60
2022-11-20T10:05:14.679Z,1.40
2022-11-20T10:09:04.125Z,1.67
2022-11-20T10:12:58.237Z,1.70
2022-11-20T10:16:46.320Z,1.70
2022-11-20T10:20:32.689Z,1.80
2022-11-20T10:24:29.383Z,1.40
2022-11-20T10:28:41.004Z,1.67
2022-11-20T10:32:27.746Z,1.40
2022-11-20T10:36:17.608Z,1.50
2022-11-20T10:40:08.973Z,1.47
2022-11-20T10:43:56.632Z,1.27
2022-11-20T10:47:39.624Z,1.33
2022-11-20T10:51:33.244Z,1.40
2022-11-20T10:55:25.549Z,1.30
2022-11-20T10:59:29.923Z,1.57
2022-11-20T11:03:33.107Z,1.30
2022-11-20T11:07:20.917Z,1.63
2022-11-20T11:11:12.603Z,1.40
2022-11-20T11:14:58.565Z,1.23
2022-11-20T11:18:43.004Z,1.33
2022-11-20T11:22:25.635Z,1.43
2022-11-20T11:26:20.112Z,1.33
2022-11-20T11:30:16.133Z,1.67
2022-11-20T11:34:07.974Z,1.53
2022-11-20T11:37:51.906Z,1.30
2022-11-20T11:41:36.679Z,1.23
2022-11-20T11:45:21.050Z,1.33
2022-11-20T11:49:16.154Z,2.03
2022-11-20T11:53:06.811Z,1.50
2022-11-20T11:56:49.470Z,1.43
2022-11-20T12:00:34.956Z,1.77
2022-11-20T12:04:23.052Z,1.63
2022-11-20T12:08:12.289Z,1.40
2022-11-20T12:11:56.846Z,1.70
2022-11-20T12:15:47.046Z,1.73
2022-11-20T12:19:31.406Z,1.40
2022-11-20T12:23:19.940Z,1.40
2022-11-20T12:27:16.407Z,1.63
2022-11-20T12:31:25.948Z,1.70
2022-11-20T12:35:24.093Z,1.70
2022-11-20T12:39:41.108Z,1.60
2022-11-20T12:43:42.943Z,1.40
2022-11-20T12:47:32.194Z,1.70
2022-11-20T12:51:30.495Z,1.40
2022-11-20T12:55:22.833Z,1.70
2022-11-20T12:59:18.852Z,2.03
2022-11-20T13:03:11.378Z,1.80
2022-11-20T13:06:54.193Z,1.80
2022-11-20T13:10:41.006Z,2.07
2022-11-20T13:14:33.805Z,1.77
2022-11-20T13:18:18.394Z,2.10
2022-11-20T13:22:01.142Z,2.10
2022-11-20T13:25:43.839Z,1.90
2022-11-20T13:29:26.492Z,3.80
2022-11-20T13:33:10.981Z,2.47
2022-11-20T13:36:58.698Z,2.30
2022-11-20T13:40:52.931Z,2.40
2022-11-20T13:44:38.920Z,2.50
2022-11-20T13:48:23.082Z,2.50
2022-11-20T13:52:29.186Z,2.20
2022-11-20T13:56:19.834Z,2.40
2022-11-20T14:00:09.727Z,2.00
2022-11-20T14:04:08.589Z,2.20
2022-11-20T14:07:54.527Z,2.30
2022-11-20T14:11:37.196Z,1.80
2022-11-20T14:15:31.104Z,2.60
2022-11-20T14:19:34.839Z,1.97
2022-11-20T14:23:29.949Z,2.00
2022-11-20T14:27:15.964Z,1.90
2022-11-20T14:30:59.145Z,1.80
2022-11-20T14:34:43.937Z,2.00
2022-11-20T14:38:29.422Z,1.50
2022-11-20T14:42:19.610Z,1.90
2022-11-20T14:46:04.646Z,1.70
2022-11-20T14:49:47.918Z,1.40
2022-11-20T14:53:32.023Z,1.00
2022-11-20T14:57:28.753Z,1.00
2022-11-20T15:01:14.634Z,1.30
2022-11-20T15:05:00.225Z,0.83
2022-11-20T15:08:54.353Z,0.90
2022-11-20T15:12:39.516Z,1.30
2022-11-20T15:16:24.166Z,1.13
2022-11-20T15:20:12.551Z,1.30
2022-11-20T15:23:56.633Z,1.00
2022-11-20T15:27:39.282Z,1.10
2022-11-20T15:31:23.753Z,1.60
2022-11-20T15:35:07.404Z,1.30
2022-11-20T15:38:50.595Z,1.27
2022-11-20T15:42:34.898Z,1.47
2022-11-20T15:46:18.825Z,1.50
2022-11-20T15:50:01.546Z,1.43
2022-11-20T15:53:44.301Z,1.90
2022-11-20T15:57:28.175Z,1.50
2022-11-20T16:01:13.745Z,1.80
2022-11-20T16:04:56.405Z,1.80
2022-11-20T16:08:41.792Z,1.80
2022-11-20T16:12:38.358Z,1.73
2022-11-20T16:16:24.637Z,1.97
2022-11-20T16:20:08.384Z,2.00
2022-11-20T16:23:51.087Z,2.10
2022-11-20T16:27:33.799Z,2.83
2022-11-20T16:31:18.373Z,2.70
2022-11-20T16:35:03.231Z,2.47
2022-11-20T16:38:46.030Z,2.90
2022-11-20T16:42:28.826Z,2.97
2022-11-20T16:46:11.534Z,2.50
2022-11-20T16:49:54.235Z,3.00
2022-11-20T16:53:38.463Z,3.50
2022-11-20T16:57:21.194Z,3.40
2022-11-20T17:01:07.398Z,3.13
2022-11-20T17:04:50.044Z,3.70
2022-11-20T17:08:32.688Z,3.47
2022-11-20T17:12:16.692Z,3.33
2022-11-20T17:16:03.037Z,3.80
2022-11-20T17:19:45.687Z,4.00
2022-11-20T17:23:29.329Z,3.53
2022-11-20T17:27:12.106Z,4.00
2022-11-20T17:31:00.633Z,3.87
2022-11-20T17:34:43.272Z,3.80
2022-11-20T17:38:26.135Z,4.53
2022-11-20T17:42:26.177Z,4.40
2022-11-20T17:46:11.817Z,4.43
2022-11-20T17:49:55.396Z,4.70
2022-11-20T17:53:39.971Z,5.07
2022-11-20T17:57:40.494Z,4.53
2022-11-20T18:01:24.960Z,4.17
2022-11-20T18:05:08.236Z,4.00
2022-11-20T18:08:51.293Z,4.47
2022-11-20T18:12:35.687Z,4.07
2022-11-20T18:16:18.358Z,4.20
2022-11-20T18:24:05.372Z,3.90
2022-11-20T18:27:48.062Z,3.50
2022-11-20T18:31:30.862Z,14.87
2022-11-20T18:35:15.078Z,4.70
2022-11-20T18:38:59.922Z,5.90
2022-11-20T18:43:00.082Z,3.90
2022-11-20T18:46:42.885Z,3.67
2022-11-20T18:50:26.899Z,3.63
2022-11-20T18:54:09.512Z,3.07
2022-11-20T18:57:52.635Z,3.10
2022-11-20T19:01:35.614Z,3.07
2022-11-20T19:05:18.411Z,3.40
2022-11-20T19:09:02.507Z,4.00
2022-11-20T19:12:45.152Z,3.80
2022-11-20T19:16:27.989Z,4.10
2022-11-20T19:20:11.771Z,4.00
2022-11-20T19:23:55.866Z,4.60
2022-11-20T19:27:52.409Z,4.67
2022-11-20T19:31:35.113Z,3.67
2022-11-20T19:35:18.031Z,3.73
2022-11-20T19:39:01.059Z,3.17
2022-11-20T19:42:43.731Z,3.23
2022-11-20T19:46:29.238Z,3.47
2022-11-20T19:50:11.979Z,4.27
2022-11-20T19:53:56.438Z,4.60
2022-11-20T19:57:39.113Z,4.97
2022-11-20T20:01:24.113Z,4.23
2022-11-20T20:05:08.819Z,4.27
2022-11-20T20:08:55.485Z,4.03
2022-11-20T20:12:38.192Z,4.40
2022-11-20T20:16:22.205Z,4.27
2022-11-20T20:20:05.652Z,3.73
2022-11-20T20:23:51.915Z,3.33
2022-11-20T20:27:36.647Z,3.90
2022-11-20T20:31:20.866Z,3.77
2022-11-20T20:35:03.531Z,3.67
2022-11-20T20:38:46.558Z,4.07
2022-11-20T20:42:32.817Z,3.67
2022-11-20T20:46:15.435Z,4.30
2022-11-20T20:49:58.084Z,10.33
2022-11-20T20:53:40.750Z,3.87
2022-11-20T20:57:24.455Z,2.97
2022-11-20T21:01:11.076Z,2.50
2022-11-20T21:04:53.881Z,2.30
2022-11-20T21:08:40.103Z,2.30
2022-11-20T21:12:23.479Z,2.33
2022-11-20T21:16:06.650Z,2.17
2022-11-20T21:19:51.139Z,1.80
2022-11-20T21:23:34.141Z,2.07
2022-11-20T21:27:16.796Z,2.10
2022-11-20T21:31:06.949Z,2.50
2022-11-20T21:34:51.036Z,2.10
2022-11-20T21:38:33.733Z,2.00
2022-11-20T21:42:16.475Z,1.70
2022-11-20T21:46:03.067Z,1.60
2022-11-20T21:49:45.713Z,1.60
2022-11-20T21:53:29.731Z,1.70
2022-11-20T21:57:12.445Z,1.60
2022-11-20T22:00:55.088Z,1.87
2022-11-20T22:04:37.727Z,2.00
2022-11-20T22:08:20.392Z,1.60
2022-11-20T22:12:04.981Z,1.60
2022-11-20T22:16:00.469Z,1.70
2022-11-20T22:19:43.682Z,1.90
2022-11-20T22:23:26.521Z,1.90
2022-11-20T22:27:11.500Z,2.10
2022-11-20T22:30:54.134Z,2.30
2022-11-20T22:34:37.058Z,1.90
2022-11-20T22:38:19.743Z,1.87
2022-11-20T22:42:02.428Z,2.30
2022-11-20T22:45:46.739Z,2.20
2022-11-20T22:49:29.460Z,1.70
2022-11-20T22:53:12.104Z,1.40
2022-11-20T22:56:54.809Z,1.40
2022-11-20T23:00:37.715Z,1.30
2022-11-20T23:04:22.326Z,1.40
2022-11-20T23:08:05.808Z,1.17
2022-11-20T23:11:48.496Z,1.40
2022-11-20T23:15:31.226Z,1.00
2022-11-20T23:19:15.192Z,0.90
2022-11-20T23:22:59.253Z,1.00
2022-11-20T23:26:43.200Z,0.90
2022-11-20T23:30:26.412Z,0.70
2022-11-20T23:34:09.185Z,0.63
2022-11-20T23:37:51.812Z,0.50
2022-11-20T23:41:35.904Z,0.70
2022-11-20T23:45:18.551Z,0.47
2022-11-20T23:49:01.226Z,0.60
2022-11-20T23:52:43.920Z,0.60
2022-11-20T23:56:26.586Z,0.50
